createdAt,value
2018-03-09T00:01:11.467Z,99854.41
2018-03-09T00:03:39.074Z,99862.17
2018-03-09T00:06:06.706Z,99855.83
2018-03-09T00:08:34.299Z,99860.50
2018-03-09T00:11:01.940Z,99858.89
2018-03-09T00:13:29.547Z,99874.81
2018-03-09T00:15:57.175Z,99874.66
2018-03-09T00:18:24.801Z,99869.50
2018-03-09T00:20:52.432Z,99872.16
2018-03-09T00:23:20.053Z,99874.72
2018-03-09T00:25:47.714Z,99873.61
2018-03-09T00:28:15.345Z,99876.14
2018-03-09T00:30:42.988Z,99875.32
2018-03-09T00:33:10.623Z,99874.66
2018-03-09T00:35:38.249Z,99872.37
2018-03-09T00:38:05.842Z,99875.95
2018-03-09T00:40:33.471Z,99875.78
2018-03-09T00:43:01.075Z,99876.66
2018-03-09T00:45:28.735Z,99883.70
2018-03-09T00:47:56.347Z,99883.95
2018-03-09T00:50:23.980Z,99878.69
2018-03-09T00:52:51.573Z,99889.02
2018-03-09T00:55:19.199Z,99885.36
2018-03-09T00:57:46.787Z,99878.76
2018-03-09T01:00:14.410Z,99883.69
2018-03-09T01:02:42.022Z,99882.77
2018-03-09T01:05:09.648Z,99887.42
2018-03-09T01:07:37.238Z,99888.81
2018-03-09T01:10:04.858Z,99883.19
2018-03-09T01:12:32.462Z,99881.95
2018-03-09T01:15:00.070Z,99882.58
2018-03-09T01:17:27.662Z,99894.48
2018-03-09T01:19:55.286Z,99893.41
2018-03-09T01:22:22.873Z,99894.45
2018-03-09T01:24:50.493Z,99893.75
2018-03-09T01:27:18.079Z,99901.63
2018-03-09T01:29:45.678Z,99899.56
2018-03-09T01:32:13.257Z,99899.82
2018-03-09T01:34:40.905Z,99902.11
2018-03-09T01:37:08.514Z,99908.06
2018-03-09T01:39:36.123Z,99909.44
2018-03-09T01:42:03.903Z,99907.44
2018-03-09T01:44:31.505Z,99914.16
2018-03-09T01:46:59.109Z,99909.89
2018-03-09T01:49:26.706Z,99912.33
2018-03-09T01:51:54.290Z,99911.53
2018-03-09T01:54:21.901Z,99916.78
2018-03-09T01:56:49.487Z,99914.28
2018-03-09T01:59:17.087Z,99918.73
2018-03-09T02:01:44.670Z,99917.60
2018-03-09T02:04:12.392Z,99917.07
2018-03-09T02:06:40.019Z,99918.81
2018-03-09T02:09:07.758Z,99918.18
2018-03-09T02:11:35.333Z,99920.66
2018-03-09T02:14:02.934Z,99918.25
2018-03-09T02:16:30.544Z,99919.18
2018-03-09T02:18:58.118Z,99918.72
2018-03-09T02:21:25.727Z,99926.73
2018-03-09T02:23:53.316Z,99922.72
2018-03-09T02:26:20.933Z,99921.92
2018-03-09T02:28:48.546Z,99920.38
2018-03-09T02:31:16.171Z,99920.71
2018-03-09T02:33:43.767Z,99924.02
2018-03-09T02:36:11.371Z,99922.11
2018-03-09T02:38:39.047Z,99925.18
2018-03-09T02:41:06.665Z,99925.78
2018-03-09T02:43:34.256Z,99928.36
2018-03-09T02:46:01.942Z,99926.44
2018-03-09T02:48:29.591Z,99929.97
2018-03-09T02:50:57.208Z,99935.75
2018-03-09T02:53:24.798Z,99925.64
2018-03-09T02:55:52.486Z,99938.08
2018-03-09T02:58:20.077Z,99931.03
2018-03-09T03:00:47.838Z,99939.89
2018-03-09T03:03:15.449Z,99936.34
2018-03-09T03:05:43.153Z,99936.41
2018-03-09T03:08:10.744Z,99941.28
2018-03-09T03:10:38.426Z,99937.84
2018-03-09T03:13:06.078Z,99941.95
2018-03-09T03:15:33.814Z,99935.63
2018-03-09T03:18:01.394Z,99942.08
2018-03-09T03:20:29.080Z,99944.64
2018-03-09T03:22:56.779Z,99941.77
2018-03-09T03:25:24.385Z,99943.52
2018-03-09T03:27:51.986Z,99950.06
2018-03-09T03:30:19.602Z,99955.84
2018-03-09T03:32:47.271Z,99959.09
2018-03-09T03:35:14.934Z,99962.58
2018-03-09T03:37:42.519Z,99959.14
2018-03-09T03:40:10.139Z,99965.58
2018-03-09T03:42:37.738Z,99961.91
2018-03-09T03:45:05.390Z,99973.05
2018-03-09T03:47:33.009Z,99976.52
2018-03-09T03:50:00.632Z,99968.59
2018-03-09T03:52:28.203Z,99966.35
2018-03-09T03:54:55.827Z,99973.31
2018-03-09T03:57:23.435Z,99974.34
2018-03-09T03:59:51.039Z,99974.46
2018-03-09T04:02:18.698Z,99976.42
2018-03-09T04:04:46.313Z,99980.33
2018-03-09T04:07:13.950Z,99988.66
2018-03-09T04:09:41.657Z,99985.63
2018-03-09T04:12:09.325Z,99985.97
2018-03-09T04:14:37.007Z,99977.63
2018-03-09T04:17:04.659Z,99980.18
2018-03-09T04:19:32.259Z,99978.27
2018-03-09T04:21:59.913Z,99974.95
2018-03-09T04:24:27.615Z,99973.98
2018-03-09T04:26:55.341Z,99976.30
2018-03-09T04:29:23.031Z,99986.25
2018-03-09T04:31:50.692Z,99981.77
2018-03-09T04:34:18.374Z,99986.83
2018-03-09T04:36:46.038Z,99989.81
2018-03-09T04:39:13.767Z,99989.02
2018-03-09T04:41:41.438Z,99992.16
2018-03-09T04:44:09.181Z,99997.75
2018-03-09T04:46:36.766Z,99998.95
2018-03-09T04:49:04.528Z,99996.30
2018-03-09T04:51:32.194Z,100002.04
2018-03-09T04:53:59.885Z,100009.25
2018-03-09T04:56:27.562Z,100015.64
2018-03-09T04:58:55.242Z,100012.85
2018-03-09T05:01:22.830Z,100018.84
2018-03-09T05:03:50.530Z,100017.94
2018-03-09T05:06:18.234Z,100017.81
2018-03-09T05:08:45.929Z,100018.22
2018-03-09T05:11:13.515Z,100020.06
2018-03-09T05:13:41.132Z,100021.15
2018-03-09T05:16:08.823Z,100016.99
2018-03-09T05:18:36.517Z,100025.95
2018-03-09T05:21:04.207Z,100017.28
2018-03-09T05:23:31.888Z,100015.77
2018-03-09T05:25:59.618Z,100019.22
2018-03-09T05:28:27.333Z,100019.27
2018-03-09T05:30:55.049Z,100025.15
2018-03-09T05:33:22.735Z,100026.72
2018-03-09T05:35:50.332Z,100029.49
2018-03-09T05:38:18.023Z,100026.37
2018-03-09T05:40:45.705Z,100032.86
2018-03-09T05:43:13.430Z,100032.02
2018-03-09T05:45:41.087Z,100039.59
2018-03-09T05:48:08.731Z,100036.84
2018-03-09T05:50:36.310Z,100041.32
2018-03-09T05:53:03.934Z,100046.94
2018-03-09T05:55:31.672Z,100046.73
2018-03-09T05:57:59.365Z,100040.28
2018-03-09T06:00:27.006Z,100040.34
2018-03-09T06:02:54.654Z,100041.82
2018-03-09T06:05:22.326Z,100051.23
2018-03-09T06:07:49.989Z,100049.81
2018-03-09T06:10:17.610Z,100049.19
2018-03-09T06:12:45.381Z,100051.86
2018-03-09T06:15:13.080Z,100052.06
2018-03-09T06:17:40.750Z,100051.09
2018-03-09T06:20:08.503Z,100049.33
2018-03-09T06:22:36.183Z,100048.03
2018-03-09T06:25:03.962Z,100052.13
2018-03-09T06:27:31.631Z,100058.87
2018-03-09T06:29:59.366Z,100055.80
2018-03-09T06:32:27.022Z,100057.09
2018-03-09T06:34:54.731Z,100061.03
2018-03-09T06:37:22.385Z,100059.78
2018-03-09T06:39:50.022Z,100062.27
2018-03-09T06:42:17.714Z,100064.74
2018-03-09T06:44:45.351Z,100064.57
2018-03-09T06:47:12.931Z,100063.80
2018-03-09T06:49:40.621Z,100070.60
2018-03-09T06:52:08.203Z,100070.02
2018-03-09T06:54:35.970Z,100069.16
2018-03-09T06:57:03.588Z,100067.24
2018-03-09T06:59:31.293Z,100063.39
2018-03-09T07:01:58.874Z,100070.55
2018-03-09T07:04:26.523Z,100072.54
2018-03-09T07:06:54.106Z,100076.62
2018-03-09T07:09:21.735Z,100083.54
2018-03-09T07:11:49.442Z,100090.34
2018-03-09T07:14:17.219Z,100085.77
2018-03-09T07:16:44.868Z,100079.74
2018-03-09T07:19:14.150Z,100077.54
2018-03-09T07:21:41.790Z,100083.12
2018-03-09T07:24:09.414Z,100084.27
2018-03-09T07:26:37.018Z,100091.48
2018-03-09T07:29:04.698Z,100097.57
2018-03-09T07:31:32.287Z,100093.80
2018-03-09T07:33:59.908Z,100100.88
2018-03-09T07:36:27.496Z,100107.88
2018-03-09T07:38:55.123Z,100103.10
2018-03-09T07:41:22.726Z,100106.66
2018-03-09T07:43:50.364Z,100111.40
2018-03-09T07:46:17.999Z,100111.22
2018-03-09T07:48:45.770Z,100111.52
2018-03-09T07:51:13.356Z,100116.55
2018-03-09T07:53:40.996Z,100117.02
2018-03-09T07:56:08.783Z,100120.50
2018-03-09T07:58:36.519Z,100115.30
2018-03-09T08:01:04.107Z,100126.80
2018-03-09T08:03:31.724Z,100130.27
2018-03-09T08:05:59.310Z,100128.56
2018-03-09T08:08:26.972Z,100129.63
2018-03-09T08:10:54.576Z,100128.27
2018-03-09T08:13:22.223Z,100131.44
2018-03-09T08:15:49.852Z,100130.80
2018-03-09T08:18:17.471Z,100124.97
2018-03-09T08:20:45.079Z,100128.74
2018-03-09T08:23:12.710Z,100117.27
2018-03-09T08:25:40.311Z,100127.36
2018-03-09T08:28:08.030Z,100119.52
2018-03-09T08:30:35.643Z,100117.91
2018-03-09T08:33:03.337Z,100117.08
2018-03-09T08:35:30.931Z,100117.52
2018-03-09T08:37:58.553Z,100119.34
2018-03-09T08:40:26.242Z,100116.72
2018-03-09T08:42:53.887Z,100112.72
2018-03-09T08:45:21.486Z,100116.58
2018-03-09T08:47:49.136Z,100124.46
2018-03-09T08:50:16.731Z,100113.49
2018-03-09T08:52:44.362Z,100110.33
2018-03-09T08:55:11.953Z,100110.11
2018-03-09T08:57:39.593Z,100118.57
2018-03-09T09:00:07.350Z,100113.77
2018-03-09T09:02:35.014Z,100123.05
2018-03-09T09:05:02.615Z,100114.50
2018-03-09T09:07:30.238Z,100113.04
2018-03-09T09:09:57.836Z,100109.70
2018-03-09T09:12:25.578Z,100116.24
2018-03-09T09:14:53.165Z,100107.34
2018-03-09T09:17:20.815Z,100113.06
2018-03-09T09:19:48.803Z,100119.41
2018-03-09T09:22:16.407Z,100120.03
2018-03-09T09:24:44.059Z,100124.55
2018-03-09T09:27:11.716Z,100122.74
2018-03-09T09:29:39.341Z,100121.13
2018-03-09T09:32:06.936Z,100129.70
2018-03-09T09:34:34.558Z,100131.96
2018-03-09T09:37:02.506Z,100128.08
2018-03-09T09:39:30.136Z,100130.62
2018-03-09T09:41:57.730Z,100131.89
2018-03-09T09:44:25.346Z,100129.95
2018-03-09T09:46:52.979Z,100127.20
2018-03-09T09:49:20.616Z,100137.49
2018-03-09T09:51:48.198Z,100136.34
2018-03-09T09:54:15.830Z,100132.41
2018-03-09T09:56:43.446Z,100139.45
2018-03-09T09:59:11.083Z,100137.10
2018-03-09T10:01:38.676Z,100138.45
2018-03-09T10:04:06.301Z,100133.59
2018-03-09T10:06:34.006Z,100137.08
2018-03-09T10:09:01.847Z,100131.64
2018-03-09T10:11:29.421Z,100133.66
2018-03-09T10:13:57.039Z,100137.62
2018-03-09T10:16:24.643Z,100131.75
2018-03-09T10:18:52.338Z,100132.86
2018-03-09T10:21:19.931Z,100123.00
2018-03-09T10:23:47.554Z,100133.84
2018-03-09T10:26:15.166Z,100127.87
2018-03-09T10:28:42.904Z,100124.67
2018-03-09T10:31:10.488Z,100124.69
2018-03-09T10:33:38.142Z,100127.20
2018-03-09T10:36:05.760Z,100127.77
2018-03-09T10:38:33.408Z,100125.48
2018-03-09T10:41:01.022Z,100125.62
2018-03-09T10:43:28.643Z,100121.33
2018-03-09T10:45:56.266Z,100125.75
2018-03-09T10:48:23.933Z,100127.19
2018-03-09T10:50:51.555Z,100128.62
2018-03-09T10:53:19.510Z,100131.56
2018-03-09T10:55:47.123Z,100123.90
2018-03-09T10:58:14.758Z,100133.61
2018-03-09T11:00:47.886Z,100128.59
2018-03-09T11:03:15.511Z,100122.96
2018-03-09T11:05:43.128Z,100127.58
2018-03-09T11:08:11.271Z,100128.64
2018-03-09T11:10:38.878Z,100119.28
2018-03-09T11:13:06.535Z,100120.34
2018-03-09T11:15:34.189Z,100117.91
2018-03-09T11:18:01.852Z,100124.55
2018-03-09T11:20:29.459Z,100116.11
2018-03-09T11:22:57.322Z,100112.71
2018-03-09T11:25:25.159Z,100119.25
2018-03-09T11:27:52.784Z,100115.11
2018-03-09T11:30:20.476Z,100107.63
2018-03-09T11:32:48.156Z,100097.09
2018-03-09T11:35:15.759Z,100097.52
2018-03-09T11:37:43.394Z,100095.00
2018-03-09T11:40:10.990Z,100093.80
2018-03-09T11:42:38.644Z,100099.84
2018-03-09T11:45:06.246Z,100098.42
2018-03-09T11:47:34.075Z,100088.75
2018-03-09T11:50:01.775Z,100088.56
2018-03-09T11:52:29.410Z,100089.00
2018-03-09T11:54:57.018Z,100081.22
2018-03-09T11:57:24.642Z,100086.15
2018-03-09T11:59:53.056Z,100087.06
2018-03-09T12:02:20.675Z,100074.13
2018-03-09T12:04:48.263Z,100075.59
2018-03-09T12:07:16.057Z,100081.32
2018-03-09T12:09:43.676Z,100072.62
2018-03-09T12:12:11.319Z,100078.48
2018-03-09T12:14:38.910Z,100084.97
2018-03-09T12:17:06.570Z,100086.38
2018-03-09T12:19:34.165Z,100078.78
2018-03-09T12:22:01.804Z,100085.58
2018-03-09T12:24:29.428Z,100076.93
2018-03-09T12:26:57.034Z,100085.67
2018-03-09T12:29:24.667Z,100081.17
2018-03-09T12:31:52.366Z,100074.39
2018-03-09T12:34:19.983Z,100073.06
2018-03-09T12:36:47.619Z,100066.14
2018-03-09T12:39:15.227Z,100067.86
2018-03-09T12:41:42.853Z,100067.72
2018-03-09T12:44:10.454Z,100060.88
2018-03-09T12:46:38.107Z,100061.43
2018-03-09T12:49:05.711Z,100056.22
2018-03-09T12:51:33.362Z,100057.84
2018-03-09T12:54:00.962Z,100064.67
2018-03-09T12:56:28.806Z,100055.08
2018-03-09T12:58:56.450Z,100054.53
2018-03-09T13:01:24.042Z,100056.14
2018-03-09T13:03:51.662Z,100052.64
2018-03-09T13:06:19.366Z,100047.03
2018-03-09T13:11:43.489Z,100044.90
2018-03-09T13:14:21.911Z,100038.90
2018-03-09T13:16:53.477Z,100041.95
2018-03-09T13:19:21.092Z,100042.36
2018-03-09T13:21:48.730Z,100046.89
2018-03-09T13:24:16.335Z,100052.51
2018-03-09T13:26:43.964Z,100051.34
2018-03-09T13:29:11.599Z,100052.39
2018-03-09T13:31:39.248Z,100053.86
2018-03-09T13:34:06.844Z,100054.81
2018-03-09T13:36:34.504Z,100049.61
2018-03-09T13:39:02.112Z,100047.31
2018-03-09T13:41:29.778Z,100052.12
2018-03-09T13:43:57.417Z,100048.80
2018-03-09T13:46:25.010Z,100043.73
2018-03-09T13:48:52.634Z,100046.39
2018-03-09T13:51:20.283Z,100045.33
2018-03-09T13:53:47.908Z,100042.25
2018-03-09T13:56:15.618Z,100042.11
2018-03-09T13:58:43.251Z,100038.38
2018-03-09T14:01:10.840Z,100037.16
2018-03-09T14:03:38.565Z,100025.27
2018-03-09T14:06:06.165Z,100030.61
2018-03-09T14:08:33.880Z,100026.19
2018-03-09T14:11:01.747Z,100025.00
2018-03-09T14:13:29.395Z,100023.25
2018-03-09T14:15:57.026Z,100021.53
2018-03-09T14:18:24.673Z,100020.61
2018-03-09T14:20:52.375Z,100013.66
2018-03-09T14:23:19.887Z,100017.63
2018-03-09T14:25:47.613Z,100012.14
2018-03-09T14:28:15.303Z,100011.52
2018-03-09T14:30:42.880Z,100011.89
2018-03-09T14:33:10.513Z,100016.55
2018-03-09T14:35:38.120Z,100009.20
2018-03-09T14:38:05.802Z,100010.92
2018-03-09T14:40:33.415Z,100005.58
2018-03-09T14:43:01.042Z,100000.22
2018-03-09T14:45:28.647Z,99997.13
2018-03-09T14:47:56.258Z,100001.96
2018-03-09T14:50:23.871Z,100007.30
2018-03-09T14:52:51.513Z,100007.95
2018-03-09T14:55:19.155Z,100002.87
2018-03-09T14:57:46.803Z,99996.47
2018-03-09T15:00:14.414Z,99994.99
2018-03-09T15:02:42.044Z,99988.96
2018-03-09T15:05:09.645Z,99977.34
2018-03-09T15:07:37.346Z,99972.27
2018-03-09T15:10:04.944Z,99973.32
2018-03-09T15:12:32.559Z,99977.33
2018-03-09T15:15:00.172Z,99967.55
2018-03-09T15:17:27.878Z,99964.73
2018-03-09T15:19:55.394Z,99969.66
2018-03-09T15:22:23.056Z,99972.07
2018-03-09T15:24:50.686Z,99969.30
2018-03-09T15:27:18.303Z,99969.59
2018-03-09T15:29:45.906Z,99960.80
2018-03-09T15:32:13.544Z,99955.05
2018-03-09T15:34:41.170Z,99950.91
2018-03-09T15:37:08.798Z,99953.99
2018-03-09T15:39:36.398Z,99949.20
2018-03-09T15:42:04.034Z,99943.31
2018-03-09T15:44:31.663Z,99947.59
2018-03-09T15:46:59.301Z,99950.41
2018-03-09T15:49:26.974Z,99948.30
2018-03-09T15:51:54.937Z,99948.02
2018-03-09T15:54:22.530Z,99954.05
2018-03-09T15:56:50.147Z,99954.31
2018-03-09T15:59:17.772Z,99949.38
2018-03-09T16:01:45.499Z,99944.27
2018-03-09T16:04:13.143Z,99952.84
2018-03-09T16:06:40.791Z,99951.50
2018-03-09T16:09:08.380Z,99952.05
2018-03-09T16:11:36.034Z,99951.09
2018-03-09T16:14:03.655Z,99952.05
2018-03-09T16:16:31.410Z,99959.15
2018-03-09T16:18:58.995Z,99952.98
2018-03-09T16:21:26.956Z,99960.22
2018-03-09T16:23:54.539Z,99958.09
2018-03-09T16:26:22.276Z,99954.87
2018-03-09T16:28:49.880Z,99952.06
2018-03-09T16:31:17.669Z,99957.95
2018-03-09T16:33:45.309Z,99956.34
2018-03-09T16:36:12.954Z,99952.48
2018-03-09T16:38:40.563Z,99963.03
2018-03-09T16:41:08.184Z,99960.77
2018-03-09T16:43:35.770Z,99956.38
2018-03-09T16:46:03.378Z,99951.83
2018-03-09T16:48:31.115Z,99946.35
2018-03-09T16:50:58.792Z,99949.84
2018-03-09T16:53:26.390Z,99949.57
2018-03-09T16:55:54.023Z,99941.15
2018-03-09T16:58:21.618Z,99940.91
2018-03-09T17:00:49.262Z,99947.17
2018-03-09T17:03:16.861Z,99945.97
2018-03-09T17:05:44.506Z,99946.38
2018-03-09T17:08:12.095Z,99949.84
2018-03-09T17:10:39.722Z,99959.33
2018-03-09T17:13:07.404Z,99953.30
2018-03-09T17:15:35.084Z,99961.20
2018-03-09T17:18:02.735Z,99962.27
2018-03-09T17:20:30.376Z,99967.88
2018-03-09T17:22:57.996Z,99962.41
2018-03-09T17:25:25.711Z,99948.13
2018-03-09T17:27:53.342Z,99947.20
2018-03-09T17:30:20.971Z,99952.78
2018-03-09T17:32:48.595Z,99961.72
2018-03-09T17:35:16.224Z,99950.52
2018-03-09T17:37:43.839Z,99945.04
2018-03-09T17:40:11.439Z,99937.03
2018-03-09T17:42:39.027Z,99942.13
2018-03-09T17:45:06.663Z,99939.45
2018-03-09T17:47:34.251Z,99935.59
2018-03-09T17:50:01.879Z,99938.91
2018-03-09T17:52:29.594Z,99937.47
2018-03-09T17:54:58.183Z,99934.25
2018-03-09T17:57:25.870Z,99930.89
2018-03-09T17:59:53.451Z,99929.56
2018-03-09T18:02:21.063Z,99924.25
2018-03-09T18:04:48.727Z,99924.38
2018-03-09T18:07:16.340Z,99923.19
2018-03-09T18:09:43.967Z,99923.70
2018-03-09T18:12:11.668Z,99921.30
2018-03-09T18:14:39.333Z,99906.89
2018-03-09T18:17:06.919Z,99910.22
2018-03-09T18:19:34.592Z,99905.15
2018-03-09T18:22:02.195Z,99887.15
2018-03-09T18:24:30.198Z,99882.59
2018-03-09T18:26:57.791Z,99884.99
2018-03-09T18:29:25.566Z,99887.55
2018-03-09T18:31:53.170Z,99889.81
2018-03-09T18:34:20.790Z,99886.73
2018-03-09T18:36:48.413Z,99883.01
2018-03-09T18:39:16.043Z,99878.86
2018-03-09T18:41:43.750Z,99879.27
2018-03-09T18:44:11.381Z,99873.53
2018-03-09T18:46:40.289Z,99873.66
2018-03-09T18:49:09.509Z,99870.20
2018-03-09T18:51:37.120Z,99874.59
2018-03-09T18:54:04.775Z,99872.05
2018-03-09T18:56:32.372Z,99860.05
2018-03-09T18:59:00.001Z,99856.59
2018-03-09T19:01:27.636Z,99859.13
2018-03-09T19:03:55.372Z,99860.86
2018-03-09T19:06:22.992Z,99863.67
2018-03-09T19:08:50.644Z,99857.00
2018-03-09T19:11:18.258Z,99854.84
2018-03-09T19:13:45.892Z,99846.46
2018-03-09T19:16:13.519Z,99844.31
2018-03-09T19:18:41.150Z,99845.27
2018-03-09T19:21:08.807Z,99842.05
2018-03-09T19:23:36.430Z,99846.05
2018-03-09T19:26:04.029Z,99844.31
2018-03-09T19:28:31.683Z,99844.17
2018-03-09T19:30:59.325Z,99845.12
2018-03-09T19:33:27.054Z,99833.09
2018-03-09T19:35:54.671Z,99833.23
2018-03-09T19:38:22.292Z,99824.02
2018-03-09T19:40:49.954Z,99835.52
2018-03-09T19:43:17.606Z,99823.88
2018-03-09T19:45:45.222Z,99822.45
2018-03-09T19:48:12.930Z,99828.02
2018-03-09T19:50:40.535Z,99822.83
2018-03-09T19:53:08.215Z,99833.09
2018-03-09T19:55:35.826Z,99826.96
2018-03-09T19:58:03.458Z,99832.30
2018-03-09T20:00:31.079Z,99836.72
2018-03-09T20:02:58.744Z,99829.49
2018-03-09T20:05:26.363Z,99826.69
2018-03-09T20:07:54.036Z,99829.12
2018-03-09T20:10:21.631Z,99822.31
2018-03-09T20:12:49.279Z,99823.37
2018-03-09T20:15:16.882Z,99827.09
2018-03-09T20:17:44.551Z,99827.64
2018-03-09T20:20:12.165Z,99831.38
2018-03-09T20:22:39.790Z,99832.57
2018-03-09T20:25:07.343Z,99824.46
2018-03-09T20:27:35.083Z,99818.98
2018-03-09T20:30:02.694Z,99828.05
2018-03-09T20:32:30.399Z,99819.13
2018-03-09T20:34:57.995Z,99820.31
2018-03-09T20:37:25.599Z,99815.39
2018-03-09T20:39:53.247Z,99811.66
2018-03-09T20:42:20.913Z,99808.31
2018-03-09T20:44:48.546Z,99799.93
2018-03-09T20:47:16.154Z,99798.19
2018-03-09T20:49:43.810Z,99795.92
2018-03-09T20:52:11.477Z,99795.92
2018-03-09T20:54:39.118Z,99789.91
2018-03-09T20:57:06.728Z,99792.98
2018-03-09T20:59:34.401Z,99784.98
2018-03-09T21:02:01.998Z,99777.25
2018-03-09T21:04:29.626Z,99769.25
2018-03-09T21:06:57.263Z,99761.39
2018-03-09T21:09:24.870Z,99771.54
2018-03-09T21:11:52.502Z,99760.33
2018-03-09T21:14:20.124Z,99760.19
2018-03-09T21:16:47.758Z,99763.13
2018-03-09T21:19:15.370Z,99762.59
2018-03-09T21:21:42.954Z,99763.51
2018-03-09T21:24:10.585Z,99761.39
2018-03-09T21:26:38.238Z,99754.86
2018-03-09T21:29:05.890Z,99753.39
2018-03-09T21:31:33.550Z,99754.31
2018-03-09T21:34:01.178Z,99757.52
2018-03-09T21:36:28.809Z,99758.04
2018-03-09T21:38:56.428Z,99751.13
2018-03-09T21:41:24.050Z,99746.31
2018-03-09T21:43:51.658Z,99751.78
2018-03-09T21:46:19.290Z,99742.31
2018-03-09T21:48:46.894Z,99746.45
2018-03-09T21:51:14.522Z,99744.19
2018-03-09T21:53:42.164Z,99734.31
2018-03-09T21:56:09.790Z,99726.85
2018-03-09T21:58:37.409Z,99727.27
2018-03-09T22:01:05.012Z,99719.13
2018-03-09T22:03:32.642Z,99716.84
2018-03-09T22:06:00.274Z,99717.52
2018-03-09T22:08:27.919Z,99719.64
2018-03-09T22:10:55.532Z,99718.98
2018-03-09T22:13:23.167Z,99730.17
2018-03-09T22:15:50.775Z,99730.03
2018-03-09T22:18:18.410Z,99722.16
2018-03-09T22:20:46.022Z,99719.23
2018-03-09T22:23:13.661Z,99712.56
2018-03-09T22:25:41.265Z,99707.08
2018-03-09T22:28:08.901Z,99705.34
2018-03-09T22:30:36.511Z,99709.09
2018-03-09T22:33:04.416Z,99707.77
2018-03-09T22:35:32.041Z,99699.77
2018-03-09T22:37:59.812Z,99693.88
2018-03-09T22:40:27.486Z,99699.36
2018-03-09T22:42:55.122Z,99697.09
2018-03-09T22:45:22.891Z,99693.09
2018-03-09T22:47:50.536Z,99680.82
2018-03-09T22:50:18.134Z,99676.68
2018-03-09T22:52:45.796Z,99674.28
2018-03-09T22:55:13.399Z,99674.14
2018-03-09T22:57:41.146Z,99668.67
2018-03-09T23:00:08.752Z,99675.06
2018-03-09T23:02:36.373Z,99668.25
2018-03-09T23:05:03.970Z,99665.05
2018-03-09T23:07:31.590Z,99674.65
2018-03-09T23:09:59.230Z,99665.03
2018-03-09T23:12:26.863Z,99670.51
2018-03-09T23:14:54.459Z,99667.84
2018-03-09T23:17:22.085Z,99669.03
2018-03-09T23:19:49.706Z,99661.95
2018-03-09T23:22:17.329Z,99660.48
2018-03-09T23:24:45.053Z,99665.95
2018-03-09T23:27:12.698Z,99656.23
2018-03-09T23:29:40.502Z,99656.23
2018-03-09T23:32:08.130Z,99653.02
2018-03-09T23:34:35.754Z,99646.34
2018-03-09T23:37:03.385Z,99639.95
2018-03-09T23:39:30.982Z,99642.20
2018-03-09T23:41:58.706Z,99643.53
2018-03-09T23:44:26.301Z,99638.98
2018-03-09T23:46:53.960Z,99639.11
2018-03-09T23:49:21.554Z,99640.98
2018-03-09T23:51:49.258Z,99637.08
2018-03-09T23:54:16.886Z,99632.02
2018-03-09T23:56:44.473Z,99633.63
2018-03-09T23:59:12.100Z,99626.55
